createdAt,value
2023-04-21T00:02:17.301Z,8.49
2023-04-21T00:04:45.740Z,8.43
2023-04-21T00:07:14.646Z,8.41
2023-04-21T00:09:41.117Z,8.39
2023-04-21T00:12:07.668Z,8.39
2023-04-21T00:14:34.024Z,8.39
2023-04-21T00:17:00.535Z,8.40
2023-04-21T00:19:26.950Z,8.36
2023-04-21T00:21:58.515Z,8.36
2023-04-21T00:24:25.728Z,8.36
2023-04-21T00:26:52.056Z,8.32
2023-04-21T00:29:18.949Z,8.33
2023-04-21T00:31:45.519Z,8.36
2023-04-21T00:34:11.859Z,8.38
2023-04-21T00:36:38.187Z,8.36
2023-04-21T00:39:04.538Z,8.33
2023-04-21T00:41:31.346Z,8.33
2023-04-21T00:44:08.135Z,8.34
2023-04-21T00:46:35.850Z,8.34
2023-04-21T00:49:07.206Z,8.34
2023-04-21T00:51:35.676Z,8.32
2023-04-21T00:54:06.201Z,8.30
2023-04-21T00:56:34.500Z,8.32
2023-04-21T00:59:02.143Z,8.30
2023-04-21T01:01:30.035Z,8.23
2023-04-21T01:03:59.205Z,8.17
2023-04-21T01:06:29.028Z,8.17
2023-04-21T01:08:55.858Z,8.18
2023-04-21T01:11:22.252Z,8.16
2023-04-21T01:13:48.694Z,8.12
2023-04-21T01:16:18.669Z,8.16
2023-04-21T01:18:45.613Z,8.18
2023-04-21T01:21:12.973Z,8.22
2023-04-21T01:23:40.476Z,8.26
2023-04-21T01:26:07.586Z,8.21
2023-04-21T01:28:34.241Z,8.28
2023-04-21T01:31:00.837Z,8.34
2023-04-21T01:33:27.583Z,8.34
2023-04-21T01:35:55.490Z,8.36
2023-04-21T01:38:22.389Z,8.30
2023-04-21T01:40:51.743Z,8.23
2023-04-21T01:43:20.977Z,8.25
2023-04-21T01:45:47.750Z,8.29
2023-04-21T01:48:14.249Z,8.26
2023-04-21T01:50:40.613Z,8.24
2023-04-21T01:53:06.928Z,8.21
2023-04-21T01:55:33.457Z,8.20
2023-04-21T01:57:59.989Z,8.18
2023-04-21T02:00:26.896Z,8.21
2023-04-21T02:02:53.420Z,8.14
2023-04-21T02:05:19.904Z,8.07
2023-04-21T02:07:46.295Z,8.11
2023-04-21T02:10:13.115Z,8.18
2023-04-21T02:12:39.544Z,8.18
2023-04-21T02:15:06.744Z,8.20
2023-04-21T02:17:33.160Z,8.18
2023-04-21T02:20:00.009Z,8.23
2023-04-21T02:22:27.208Z,8.25
2023-04-21T02:24:53.547Z,8.26
2023-04-21T02:27:19.930Z,8.25
2023-04-21T02:29:46.296Z,8.24
2023-04-21T02:32:22.264Z,8.26
2023-04-21T02:34:52.049Z,8.30
2023-04-21T02:37:18.470Z,8.29
2023-04-21T02:39:44.845Z,8.30
2023-04-21T02:42:11.448Z,8.34
2023-04-21T02:44:38.359Z,8.34
2023-04-21T02:47:04.842Z,8.29
2023-04-21T02:49:31.229Z,8.25
2023-04-21T02:52:00.640Z,8.22
2023-04-21T02:54:26.969Z,8.20
2023-04-21T02:56:53.363Z,8.14
2023-04-21T02:59:20.313Z,8.15
2023-04-21T03:01:49.131Z,8.14
2023-04-21T03:04:15.666Z,8.23
2023-04-21T03:06:42.309Z,8.22
2023-04-21T03:09:09.087Z,8.23
2023-04-21T03:11:35.416Z,8.20
2023-04-21T03:14:01.723Z,8.25
2023-04-21T03:16:28.229Z,8.17
2023-04-21T03:18:54.598Z,8.16
2023-04-21T03:21:21.039Z,8.11
2023-04-21T03:23:47.441Z,8.06
2023-04-21T03:26:13.775Z,8.02
2023-04-21T03:28:40.176Z,8.02
2023-04-21T03:31:06.551Z,8.07
2023-04-21T03:33:32.858Z,8.05
2023-04-21T03:35:59.231Z,8.06
2023-04-21T03:38:25.723Z,8.06
2023-04-21T03:40:52.093Z,8.10
2023-04-21T03:43:18.509Z,8.07
2023-04-21T03:45:44.972Z,8.06
2023-04-21T03:48:11.327Z,8.06
2023-04-21T03:50:38.423Z,8.06
2023-04-21T03:53:04.804Z,8.07
2023-04-21T03:55:31.197Z,8.08
2023-04-21T03:57:57.565Z,8.04
2023-04-21T04:00:24.145Z,8.02
2023-04-21T04:02:50.740Z,8.08
2023-04-21T04:05:17.193Z,8.04
2023-04-21T04:07:43.584Z,8.05
2023-04-21T04:10:10.209Z,8.13
2023-04-21T04:12:36.593Z,8.13
2023-04-21T04:15:03.255Z,8.09
2023-04-21T04:17:29.601Z,8.09
2023-04-21T04:19:56.428Z,8.05
2023-04-21T04:22:22.759Z,8.07
2023-04-21T04:24:49.106Z,8.09
2023-04-21T04:27:15.435Z,8.12
2023-04-21T04:29:41.830Z,8.10
2023-04-21T04:32:10.853Z,8.08
2023-04-21T04:34:37.992Z,8.08
2023-04-21T04:37:04.662Z,8.08
2023-04-21T04:39:32.140Z,8.10
2023-04-21T04:41:58.512Z,8.08
2023-04-21T04:44:25.800Z,8.07
2023-04-21T04:46:52.862Z,8.07
2023-04-21T04:49:19.726Z,8.08
2023-04-21T04:51:46.350Z,8.06
2023-04-21T04:54:12.893Z,8.09
2023-04-21T04:56:40.369Z,8.10
2023-04-21T04:59:06.874Z,8.10
2023-04-21T05:01:33.237Z,8.11
2023-04-21T05:03:59.830Z,8.13
2023-04-21T05:06:26.565Z,8.16
2023-04-21T05:08:52.912Z,8.18
2023-04-21T05:11:19.325Z,8.17
2023-04-21T05:13:45.857Z,8.23
2023-04-21T05:16:12.490Z,8.24
2023-04-21T05:18:38.935Z,8.26
2023-04-21T05:21:05.469Z,8.27
2023-04-21T05:23:31.822Z,8.33
2023-04-21T05:25:58.192Z,8.37
2023-04-21T05:28:24.713Z,8.44
2023-04-21T05:30:51.045Z,8.47
2023-04-21T05:33:21.186Z,8.48
2023-04-21T05:35:47.580Z,8.51
2023-04-21T05:38:13.909Z,8.56
2023-04-21T05:40:40.314Z,8.61
2023-04-21T05:43:06.738Z,8.67
2023-04-21T05:45:33.051Z,8.69
2023-04-21T05:47:59.428Z,8.74
2023-04-21T05:50:28.517Z,8.74
2023-04-21T05:52:54.920Z,8.79
2023-04-21T05:55:21.406Z,8.81
2023-04-21T05:57:47.831Z,8.85
2023-04-21T06:00:14.854Z,8.90
2023-04-21T06:02:41.426Z,8.93
2023-04-21T06:07:37.165Z,8.99
2023-04-21T06:10:04.201Z,9.00
2023-04-21T06:12:30.658Z,9.00
2023-04-21T06:14:57.662Z,8.99
2023-04-21T06:17:24.354Z,9.01
2023-04-21T06:19:53.910Z,9.04
2023-04-21T06:22:20.882Z,9.06
2023-04-21T06:24:47.513Z,9.11
2023-04-21T06:27:14.262Z,9.11
2023-04-21T06:29:42.736Z,9.18
2023-04-21T06:32:10.555Z,9.27
2023-04-21T06:34:37.700Z,9.37
2023-04-21T06:37:04.353Z,9.42
2023-04-21T06:39:31.009Z,9.46
2023-04-21T06:41:58.385Z,9.49
2023-04-21T06:44:24.803Z,9.50
2023-04-21T06:46:51.234Z,9.55
2023-04-21T06:49:17.916Z,9.62
2023-04-21T06:51:44.881Z,9.74
2023-04-21T06:54:11.271Z,9.84
2023-04-21T06:56:37.705Z,9.94
2023-04-21T06:59:04.132Z,10.04
2023-04-21T07:01:30.604Z,10.17
2023-04-21T07:03:57.064Z,10.29
2023-04-21T07:06:23.564Z,10.34
2023-04-21T07:08:49.943Z,10.42
2023-04-21T07:11:16.284Z,10.63
2023-04-21T07:13:42.655Z,10.97
2023-04-21T07:16:09.011Z,11.84
2023-04-21T07:18:35.360Z,12.51
2023-04-21T07:21:01.786Z,12.80
2023-04-21T07:23:28.357Z,13.07
2023-04-21T07:25:54.758Z,13.11
2023-04-21T07:28:21.067Z,13.05
2023-04-21T07:30:47.577Z,12.74
2023-04-21T07:33:14.081Z,12.35
2023-04-21T07:35:40.496Z,12.02
2023-04-21T07:38:06.834Z,11.87
2023-04-21T07:40:33.290Z,11.76
2023-04-21T07:42:59.749Z,11.64
2023-04-21T07:45:26.473Z,11.61
2023-04-21T07:47:52.936Z,11.57
2023-04-21T07:50:19.359Z,11.84
2023-04-21T07:52:45.904Z,12.11
2023-04-21T07:55:12.265Z,12.13
2023-04-21T07:57:40.006Z,12.17
2023-04-21T08:00:07.729Z,12.19
2023-04-21T08:02:34.246Z,12.16
2023-04-21T08:05:00.961Z,12.28
2023-04-21T08:07:27.491Z,12.08
2023-04-21T08:09:53.929Z,12.11
2023-04-21T08:12:20.281Z,12.08
2023-04-21T08:14:46.785Z,12.05
2023-04-21T08:17:13.183Z,12.04
2023-04-21T08:19:39.626Z,12.02
2023-04-21T08:22:05.972Z,12.27
2023-04-21T08:24:32.605Z,12.60
2023-04-21T08:26:59.028Z,13.07
2023-04-21T08:29:25.421Z,13.24
2023-04-21T08:31:51.759Z,12.97
2023-04-21T08:34:20.725Z,12.83
2023-04-21T08:36:47.828Z,12.61
2023-04-21T08:39:17.740Z,12.51
2023-04-21T08:41:44.446Z,12.53
2023-04-21T08:44:13.832Z,12.92
2023-04-21T08:46:40.448Z,12.93
2023-04-21T08:49:09.649Z,12.76
2023-04-21T08:51:36.313Z,12.80
2023-04-21T08:54:02.703Z,12.73
2023-04-21T08:56:29.112Z,12.65
2023-04-21T08:58:56.256Z,12.72
2023-04-21T09:01:22.788Z,12.88
2023-04-21T09:03:49.242Z,13.11
2023-04-21T09:06:16.645Z,13.29
2023-04-21T09:08:44.426Z,13.29
2023-04-21T09:11:14.548Z,13.52
2023-04-21T09:13:43.019Z,13.87
2023-04-21T09:16:18.724Z,14.21
2023-04-21T09:18:45.344Z,14.63
2023-04-21T09:21:14.118Z,14.60
2023-04-21T09:23:52.408Z,14.22
2023-04-21T09:26:22.508Z,14.14
2023-04-21T09:28:50.676Z,14.11
2023-04-21T09:31:24.412Z,14.69
2023-04-21T09:33:58.775Z,15.01
2023-04-21T09:36:29.579Z,14.93
2023-04-21T09:41:32.399Z,14.59
2023-04-21T09:44:02.040Z,14.38
2023-04-21T09:46:32.357Z,14.04
2023-04-21T09:49:01.684Z,14.04
2023-04-21T09:51:52.852Z,14.21
2023-04-21T09:56:54.743Z,14.57
2023-04-21T09:59:27.421Z,14.74
2023-04-21T10:01:56.128Z,14.92
2023-04-21T10:04:25.225Z,14.82
2023-04-21T10:06:53.006Z,14.73
2023-04-21T10:09:22.449Z,14.95
2023-04-21T10:11:48.792Z,14.85
2023-04-21T10:14:15.227Z,15.35
2023-04-21T10:16:42.828Z,16.24
2023-04-21T10:19:31.843Z,16.14
2023-04-21T10:21:58.992Z,15.53
2023-04-21T10:24:29.665Z,15.40
2023-04-21T10:27:02.059Z,15.44
2023-04-21T10:29:37.473Z,15.66
2023-04-21T10:32:10.518Z,15.78
2023-04-21T10:34:41.322Z,16.14
2023-04-21T10:37:11.603Z,15.99
2023-04-21T10:39:48.169Z,15.65
2023-04-21T10:42:20.725Z,15.90
2023-04-21T10:44:57.086Z,16.10
2023-04-21T10:47:27.165Z,16.10
2023-04-21T10:49:53.755Z,15.87
2023-04-21T10:52:21.429Z,15.75
2023-04-21T10:54:47.800Z,15.83
2023-04-21T10:57:16.656Z,15.65
2023-04-21T10:59:44.582Z,15.58
2023-04-21T11:02:12.631Z,15.47
2023-04-21T11:04:42.033Z,15.53
2023-04-21T11:07:11.907Z,15.96
2023-04-21T11:09:39.940Z,16.51
2023-04-21T11:12:09.422Z,16.58
2023-04-21T11:14:37.711Z,16.63
2023-04-21T11:17:06.062Z,16.58
2023-04-21T11:19:32.604Z,16.57
2023-04-21T11:21:59.459Z,16.46
2023-04-21T11:24:25.948Z,16.32
2023-04-21T11:26:52.386Z,15.95
2023-04-21T11:29:18.796Z,15.67
2023-04-21T11:31:48.947Z,15.55
2023-04-21T11:34:16.262Z,15.53
2023-04-21T11:36:43.462Z,15.57
2023-04-21T11:39:21.560Z,15.39
2023-04-21T11:41:51.850Z,15.69
2023-04-21T11:44:43.120Z,16.18
2023-04-21T11:47:17.558Z,16.77
2023-04-21T11:49:46.376Z,17.35
2023-04-21T11:52:24.072Z,17.68
2023-04-21T11:55:05.817Z,18.02
2023-04-21T11:57:33.378Z,19.06
2023-04-21T12:00:01.105Z,19.43
2023-04-21T12:02:29.642Z,20.25
2023-04-21T12:05:09.594Z,19.97
2023-04-21T12:07:38.098Z,20.10
2023-04-21T12:10:12.740Z,20.10
2023-04-21T12:12:40.481Z,20.54
2023-04-21T12:15:08.185Z,20.14
2023-04-21T12:17:45.261Z,19.47
2023-04-21T12:20:13.018Z,18.81
2023-04-21T12:22:39.380Z,18.65
2023-04-21T12:25:06.262Z,18.90
2023-04-21T12:27:32.990Z,18.71
2023-04-21T12:29:59.391Z,19.95
2023-04-21T12:32:26.192Z,20.96
2023-04-21T12:34:52.626Z,20.87
2023-04-21T12:37:19.318Z,19.89
2023-04-21T12:39:45.887Z,19.98
2023-04-21T12:42:12.282Z,20.55
2023-04-21T12:44:38.705Z,19.51
2023-04-21T12:47:05.266Z,18.80
2023-04-21T12:49:31.936Z,18.80
2023-04-21T12:51:58.813Z,19.34
2023-04-21T12:54:25.134Z,19.03
2023-04-21T12:56:51.481Z,18.44
2023-04-21T12:59:17.936Z,17.58
2023-04-21T13:01:44.392Z,17.28
2023-04-21T13:04:11.234Z,17.11
2023-04-21T13:06:38.729Z,17.17
2023-04-21T13:09:06.297Z,17.26
2023-04-21T13:11:32.775Z,17.34
2023-04-21T13:13:59.161Z,17.62
2023-04-21T13:16:27.797Z,17.87
2023-04-21T13:18:56.512Z,17.84
2023-04-21T13:21:22.889Z,17.54
2023-04-21T13:23:49.285Z,17.18
2023-04-21T13:26:16.068Z,16.89
2023-04-21T13:28:42.520Z,16.78
2023-04-21T13:31:08.971Z,16.76
2023-04-21T13:33:35.650Z,16.85
2023-04-21T13:36:04.865Z,17.13
2023-04-21T13:38:32.133Z,17.63
2023-04-21T13:40:58.933Z,17.82
2023-04-21T13:43:25.432Z,18.28
2023-04-21T13:45:52.365Z,18.60
2023-04-21T13:48:24.019Z,18.72
2023-04-21T13:50:51.430Z,19.43
2023-04-21T13:53:20.638Z,20.48
2023-04-21T13:55:47.742Z,20.78
2023-04-21T13:58:17.800Z,20.33
2023-04-21T14:00:44.251Z,20.19
2023-04-21T14:03:11.666Z,20.33
2023-04-21T14:05:38.967Z,20.93
2023-04-21T14:08:05.667Z,20.62
2023-04-21T14:10:32.146Z,20.33
2023-04-21T14:12:58.481Z,20.83
2023-04-21T14:15:26.276Z,21.29
2023-04-21T14:17:53.335Z,21.83
2023-04-21T14:20:20.117Z,21.56
2023-04-21T14:22:47.559Z,21.19
2023-04-21T14:25:14.048Z,21.74
2023-04-21T14:27:40.570Z,22.07
2023-04-21T14:30:07.583Z,22.08
2023-04-21T14:32:34.005Z,21.21
2023-04-21T14:35:03.130Z,20.19
2023-04-21T14:37:29.547Z,19.77
2023-04-21T14:39:56.002Z,19.83
2023-04-21T14:42:22.498Z,19.42
2023-04-21T14:44:48.921Z,19.01
2023-04-21T14:47:15.433Z,18.73
2023-04-21T14:49:41.938Z,19.00
2023-04-21T14:52:09.236Z,19.15
2023-04-21T14:54:35.674Z,19.15
2023-04-21T14:57:17.498Z,18.93
2023-04-21T14:59:47.088Z,18.70
2023-04-21T15:02:14.198Z,18.44
2023-04-21T15:04:40.991Z,18.31
2023-04-21T15:07:07.425Z,18.21
2023-04-21T15:09:34.141Z,18.27
2023-04-21T15:12:00.732Z,18.14
2023-04-21T15:14:27.195Z,18.02
2023-04-21T15:16:53.562Z,18.04
2023-04-21T15:19:19.961Z,18.01
2023-04-21T15:21:46.371Z,18.08
2023-04-21T15:24:12.879Z,18.17
2023-04-21T15:26:40.293Z,18.27
2023-04-21T15:29:07.047Z,18.51
2023-04-21T15:31:33.875Z,18.68
2023-04-21T15:34:00.486Z,19.28
2023-04-21T15:36:27.560Z,19.83
2023-04-21T15:38:53.908Z,20.28
2023-04-21T15:41:20.375Z,20.48
2023-04-21T15:43:47.596Z,20.85
2023-04-21T15:46:14.086Z,20.72
2023-04-21T15:48:44.032Z,19.98
2023-04-21T15:51:13.498Z,19.71
2023-04-21T15:53:47.221Z,19.27
2023-04-21T15:56:14.578Z,19.15
2023-04-21T15:58:41.055Z,19.14
2023-04-21T16:01:08.031Z,19.47
2023-04-21T16:03:34.807Z,19.86
2023-04-21T16:06:01.963Z,19.60
2023-04-21T16:08:28.420Z,19.54
2023-04-21T16:10:54.891Z,19.34
2023-04-21T16:13:21.286Z,19.37
2023-04-21T16:15:47.702Z,19.50
2023-04-21T16:18:14.188Z,19.64
2023-04-21T16:20:41.067Z,19.56
2023-04-21T16:23:07.555Z,19.47
2023-04-21T16:25:34.026Z,19.13
2023-04-21T16:28:00.718Z,18.90
2023-04-21T16:30:27.117Z,19.03
2023-04-21T16:32:53.528Z,19.06
2023-04-21T16:35:19.935Z,18.91
2023-04-21T16:37:46.430Z,18.70
2023-04-21T16:40:13.011Z,18.68
2023-04-21T16:42:39.410Z,18.75
2023-04-21T16:45:06.569Z,18.76
2023-04-21T16:47:37.858Z,18.75
2023-04-21T16:50:08.179Z,18.47
2023-04-21T16:52:35.233Z,18.32
2023-04-21T16:55:01.715Z,18.31
2023-04-21T16:57:29.263Z,18.21
2023-04-21T16:59:55.777Z,18.16
2023-04-21T17:02:22.370Z,18.23
2023-04-21T17:04:48.942Z,18.35
2023-04-21T17:07:15.921Z,18.31
2023-04-21T17:09:42.332Z,18.10
2023-04-21T17:12:09.434Z,17.87
2023-04-21T17:14:36.204Z,17.79
2023-04-21T17:17:02.964Z,17.73
2023-04-21T17:19:29.454Z,17.62
2023-04-21T17:21:55.999Z,17.52
2023-04-21T17:24:22.537Z,17.45
2023-04-21T17:26:49.029Z,17.37
2023-04-21T17:29:15.664Z,17.37
2023-04-21T17:31:42.060Z,17.35
2023-04-21T17:34:08.461Z,17.36
2023-04-21T17:36:35.225Z,17.50
2023-04-21T17:39:01.840Z,17.56
2023-04-21T17:41:28.170Z,17.58
2023-04-21T17:43:57.130Z,17.67
2023-04-21T17:46:25.038Z,17.71
2023-04-21T17:48:52.228Z,17.74
2023-04-21T17:51:19.249Z,17.77
2023-04-21T17:53:46.591Z,17.82
2023-04-21T17:56:14.329Z,17.76
2023-04-21T17:58:41.378Z,17.57
2023-04-21T18:01:08.212Z,17.35
2023-04-21T18:03:36.192Z,17.21
2023-04-21T18:06:03.043Z,17.13
2023-04-21T18:08:29.553Z,17.05
2023-04-21T18:10:55.862Z,16.98
2023-04-21T18:13:22.196Z,16.89
2023-04-21T18:15:48.657Z,16.50
2023-04-21T18:18:15.120Z,13.58
2023-04-21T18:20:42.124Z,11.25
2023-04-21T18:23:08.639Z,10.32
2023-04-21T18:28:07.472Z,9.88
2023-04-21T18:30:34.087Z,9.98
2023-04-21T18:33:00.473Z,10.20
2023-04-21T18:35:26.865Z,10.41
2023-04-21T18:37:53.270Z,10.34
2023-04-21T18:40:19.778Z,10.31
2023-04-21T18:42:46.697Z,10.30
2023-04-21T18:45:13.078Z,10.20
2023-04-21T18:47:40.198Z,10.00
2023-04-21T18:50:08.174Z,9.98
2023-04-21T18:52:34.604Z,10.11
2023-04-21T18:55:01.147Z,10.11
2023-04-21T18:57:27.669Z,9.98
2023-04-21T18:59:54.296Z,9.97
2023-04-21T19:02:20.981Z,10.11
2023-04-21T19:04:47.658Z,10.19
2023-04-21T19:07:15.647Z,10.03
2023-04-21T19:09:42.000Z,10.01
2023-04-21T19:12:08.444Z,10.05
2023-04-21T19:14:46.055Z,10.13
2023-04-21T19:17:13.694Z,10.07
2023-04-21T19:19:40.705Z,10.02
2023-04-21T19:22:07.154Z,9.87
2023-04-21T19:24:33.861Z,9.84
2023-04-21T19:27:02.160Z,9.94
2023-04-21T19:29:28.772Z,9.99
2023-04-21T19:31:55.355Z,9.86
2023-04-21T19:34:22.182Z,9.75
2023-04-21T19:36:48.876Z,9.75
2023-04-21T19:39:15.333Z,9.80
2023-04-21T19:41:41.681Z,9.80
2023-04-21T19:44:08.000Z,9.71
2023-04-21T19:46:34.585Z,9.79
2023-04-21T19:49:01.101Z,9.98
2023-04-21T19:51:27.879Z,10.01
2023-04-21T19:54:10.123Z,9.97
2023-04-21T19:56:38.067Z,9.71
2023-04-21T19:59:05.506Z,9.59
2023-04-21T20:01:33.367Z,9.57
2023-04-21T20:03:59.988Z,9.66
2023-04-21T20:06:27.120Z,9.72
2023-04-21T20:08:53.569Z,9.75
2023-04-21T20:11:20.915Z,9.84
2023-04-21T20:13:47.832Z,9.93
2023-04-21T20:16:14.197Z,9.98
2023-04-21T20:18:40.661Z,10.04
2023-04-21T20:21:07.090Z,10.07
2023-04-21T20:23:33.699Z,10.06
2023-04-21T20:26:00.257Z,9.91
2023-04-21T20:28:27.604Z,10.02
2023-04-21T20:30:56.184Z,10.01
2023-04-21T20:33:22.816Z,10.05
2023-04-21T20:35:49.714Z,9.88
2023-04-21T20:38:16.375Z,9.98
2023-04-21T20:40:43.018Z,10.07
2023-04-21T20:43:10.327Z,10.16
2023-04-21T20:45:37.604Z,10.17
2023-04-21T20:48:04.530Z,9.98
2023-04-21T20:50:30.968Z,9.97
2023-04-21T20:52:58.223Z,9.89
2023-04-21T20:55:24.706Z,9.75
2023-04-21T20:57:51.306Z,9.78
2023-04-21T21:00:17.912Z,9.79
2023-04-21T21:02:44.777Z,9.90
2023-04-21T21:05:11.298Z,9.92
2023-04-21T21:07:37.900Z,9.90
2023-04-21T21:10:04.979Z,9.84
2023-04-21T21:12:31.466Z,9.75
2023-04-21T21:14:58.023Z,9.74
2023-04-21T21:17:24.544Z,9.73
2023-04-21T21:19:51.007Z,9.71
2023-04-21T21:22:17.432Z,9.72
2023-04-21T21:24:43.886Z,9.75
2023-04-21T21:27:10.652Z,9.76
2023-04-21T21:29:37.357Z,9.78
2023-04-21T21:32:04.006Z,9.83
2023-04-21T21:34:30.381Z,9.81
2023-04-21T21:36:56.772Z,9.86
2023-04-21T21:39:23.302Z,9.88
2023-04-21T21:41:49.641Z,9.93
2023-04-21T21:44:16.086Z,9.94
2023-04-21T21:46:42.858Z,9.93
2023-04-21T21:49:09.275Z,9.90
2023-04-21T21:51:35.696Z,9.92
2023-04-21T21:54:02.096Z,9.94
2023-04-21T21:56:28.575Z,9.92
2023-04-21T21:58:55.053Z,9.99
2023-04-21T22:01:21.554Z,9.83
2023-04-21T22:03:48.128Z,9.78
2023-04-21T22:06:16.961Z,9.73
2023-04-21T22:08:43.817Z,9.75
2023-04-21T22:11:10.236Z,9.72
2023-04-21T22:13:36.882Z,9.62
2023-04-21T22:16:03.462Z,9.62
2023-04-21T22:18:30.190Z,9.65
2023-04-21T22:20:58.128Z,9.64
2023-04-21T22:23:25.408Z,9.57
2023-04-21T22:25:51.783Z,9.56
2023-04-21T22:28:18.210Z,9.47
2023-04-21T22:30:44.684Z,9.38
2023-04-21T22:33:11.260Z,9.29
2023-04-21T22:35:37.617Z,9.28
2023-04-21T22:38:03.952Z,9.19
2023-04-21T22:40:30.439Z,9.00
2023-04-21T22:42:56.805Z,8.92
2023-04-21T22:45:23.261Z,8.92
2023-04-21T22:47:49.676Z,8.84
2023-04-21T22:50:16.149Z,8.83
2023-04-21T22:52:42.698Z,8.76
2023-04-21T22:55:09.571Z,8.78
2023-04-21T22:57:37.463Z,8.71
2023-04-21T23:00:06.357Z,8.67
2023-04-21T23:02:33.102Z,8.61
2023-04-21T23:04:59.582Z,8.55
2023-04-21T23:07:26.101Z,8.52
2023-04-21T23:09:52.549Z,8.50
2023-04-21T23:12:18.970Z,8.44
2023-04-21T23:14:45.395Z,8.32
2023-04-21T23:17:11.741Z,8.27
2023-04-21T23:19:38.372Z,8.17
2023-04-21T23:22:05.156Z,8.10
2023-04-21T23:24:31.527Z,8.08
2023-04-21T23:26:57.878Z,8.05
2023-04-21T23:29:24.445Z,8.01
2023-04-21T23:31:50.964Z,8.05
2023-04-21T23:34:17.523Z,8.00
2023-04-21T23:36:43.947Z,7.98
2023-04-21T23:39:11.337Z,7.99
2023-04-21T23:41:37.941Z,7.99
2023-04-21T23:44:04.347Z,7.73
2023-04-21T23:46:30.726Z,7.58
2023-04-21T23:48:57.174Z,7.54
2023-04-21T23:51:23.704Z,7.50
2023-04-21T23:53:50.196Z,7.45
2023-04-21T23:56:16.773Z,7.31
2023-04-21T23:58:43.157Z,7.31
